sensor_id;sensor_type;location;lat;lon;timestamp;pressure;altitude;pressure_sealevel;temperature;humidity
56668;BME280;42542;48.360;10.958;2022-09-01T00:02:39;96378.56;;;16.46;97.19
56668;BME280;42542;48.360;10.958;2022-09-01T00:05:43;96379.22;;;16.48;97.55
56668;BME280;42542;48.360;10.958;2022-09-01T00:08:50;96380.25;;;16.47;97.28
56668;BME280;42542;48.360;10.958;2022-09-01T00:11:53;96376.72;;;16.47;97.62
56668;BME280;42542;48.360;10.958;2022-09-01T00:14:56;96377.09;;;16.44;97.59
56668;BME280;42542;48.360;10.958;2022-09-01T00:17:58;96363.81;;;16.42;97.82
56668;BME280;42542;48.360;10.958;2022-09-01T00:21:01;96378.94;;;16.43;97.62
56668;BME280;42542;48.360;10.958;2022-09-01T00:24:03;96372.53;;;16.44;97.62
56668;BME280;42542;48.360;10.958;2022-09-01T00:27:04;96359.44;;;16.41;97.41
56668;BME280;42542;48.360;10.958;2022-09-01T00:30:06;96368.38;;;16.42;96.97
56668;BME280;42542;48.360;10.958;2022-09-01T00:33:08;96369.22;;;16.42;97.18
56668;BME280;42542;48.360;10.958;2022-09-01T00:36:10;96366.50;;;16.42;97.03
56668;BME280;42542;48.360;10.958;2022-09-01T00:39:13;96363.81;;;16.42;96.99
56668;BME280;42542;48.360;10.958;2022-09-01T00:42:14;96357.78;;;16.40;96.92
56668;BME280;42542;48.360;10.958;2022-09-01T00:45:16;96359.63;;;16.39;97.14
56668;BME280;42542;48.360;10.958;2022-09-01T00:55:30;96367.91;;;16.38;97.33
56668;BME280;42542;48.360;10.958;2022-09-01T00:58:33;96377.03;;;16.37;97.17
56668;BME280;42542;48.360;10.958;2022-09-01T01:01:37;96368.75;;;16.38;97.36
56668;BME280;42542;48.360;10.958;2022-09-01T01:04:38;96366.44;;;16.35;97.69
56668;BME280;42542;48.360;10.958;2022-09-01T01:07:44;96373.50;;;16.36;97.58
56668;BME280;42542;48.360;10.958;2022-09-01T01:10:48;96365.41;;;16.36;97.70
56668;BME280;42542;48.360;10.958;2022-09-01T01:16:51;96367.25;;;16.36;97.20
56668;BME280;42542;48.360;10.958;2022-09-01T01:19:56;96360.22;;;16.35;96.80
56668;BME280;42542;48.360;10.958;2022-09-01T01:23:24;96348.38;;;16.36;97.22
56668;BME280;42542;48.360;10.958;2022-09-01T01:26:30;96361.88;;;16.36;96.97
56668;BME280;42542;48.360;10.958;2022-09-01T01:29:34;96354.63;;;16.36;96.72
56668;BME280;42542;48.360;10.958;2022-09-01T01:32:39;96350.25;;;16.35;97.02
56668;BME280;42542;48.360;10.958;2022-09-01T01:35:44;96352.50;;;16.32;96.60
56668;BME280;42542;48.360;10.958;2022-09-01T01:38:48;96341.06;;;16.30;96.52
56668;BME280;42542;48.360;10.958;2022-09-01T01:41:52;96351.84;;;16.30;95.77
56668;BME280;42542;48.360;10.958;2022-09-01T01:44:56;96351.63;;;16.25;95.76
56668;BME280;42542;48.360;10.958;2022-09-01T01:47:59;96346.41;;;16.23;95.45
56668;BME280;42542;48.360;10.958;2022-09-01T01:51:09;96352.81;;;16.22;95.34
56668;BME280;42542;48.360;10.958;2022-09-01T01:54:13;96349.03;;;16.17;95.48
56668;BME280;42542;48.360;10.958;2022-09-01T01:57:16;96345.91;;;16.13;95.18
56668;BME280;42542;48.360;10.958;2022-09-01T02:00:21;96340.53;;;16.13;95.31
56668;BME280;42542;48.360;10.958;2022-09-01T02:03:32;96346.94;;;16.12;95.33
56668;BME280;42542;48.360;10.958;2022-09-01T02:06:39;96352.53;;;16.11;95.48
56668;BME280;42542;48.360;10.958;2022-09-01T02:09:43;96344.63;;;16.09;95.81
56668;BME280;42542;48.360;10.958;2022-09-01T02:12:49;96346.47;;;16.09;95.82
56668;BME280;42542;48.360;10.958;2022-09-01T02:15:58;96343.97;;;16.07;95.60
56668;BME280;42542;48.360;10.958;2022-09-01T02:19:01;96345.81;;;16.07;95.47
56668;BME280;42542;48.360;10.958;2022-09-01T02:22:03;96342.31;;;16.06;95.58
56668;BME280;42542;48.360;10.958;2022-09-01T02:25:05;96342.50;;;16.05;95.31
56668;BME280;42542;48.360;10.958;2022-09-01T02:28:06;96339.34;;;16.01;95.45
56668;BME280;42542;48.360;10.958;2022-09-01T02:31:11;96338.50;;;16.00;95.39
56668;BME280;42542;48.360;10.958;2022-09-01T02:34:14;96340.38;;;16.00;95.12
56668;BME280;42542;48.360;10.958;2022-09-01T02:37:16;96337.25;;;15.96;95.15
56668;BME280;42542;48.360;10.958;2022-09-01T02:40:18;96348.03;;;15.96;95.35
56668;BME280;42542;48.360;10.958;2022-09-01T02:43:21;96345.50;;;15.95;95.24
56668;BME280;42542;48.360;10.958;2022-09-01T02:46:23;96340.53;;;15.92;95.09
56668;BME280;42542;48.360;10.958;2022-09-01T02:49:26;96340.97;;;15.95;95.53
56668;BME280;42542;48.360;10.958;2022-09-01T02:52:31;96339.28;;;15.94;95.50
56668;BME280;42542;48.360;10.958;2022-09-01T02:55:38;96337.25;;;15.96;95.28
56668;BME280;42542;48.360;10.958;2022-09-01T02:58:42;96343.66;;;15.95;95.46
56668;BME280;42542;48.360;10.958;2022-09-01T03:01:49;96344.88;;;15.93;95.06
56668;BME280;42542;48.360;10.958;2022-09-01T03:04:51;96331.78;;;15.90;95.22
56668;BME280;42542;48.360;10.958;2022-09-01T03:08:03;96334.47;;;15.90;94.91
56668;BME280;42542;48.360;10.958;2022-09-01T03:11:08;96335.88;;;15.86;94.58
56668;BME280;42542;48.360;10.958;2022-09-01T03:14:14;96343.13;;;15.85;94.52
56668;BME280;42542;48.360;10.958;2022-09-01T03:17:16;96342.28;;;15.85;94.70
56668;BME280;42542;48.360;10.958;2022-09-01T03:20:18;96336.28;;;15.83;95.27
56668;BME280;42542;48.360;10.958;2022-09-01T03:23:22;96331.31;;;15.86;95.42
56668;BME280;42542;48.360;10.958;2022-09-01T03:26:26;96332.16;;;15.87;95.36
56668;BME280;42542;48.360;10.958;2022-09-01T03:29:28;96323.41;;;15.85;95.08
56668;BME280;42542;48.360;10.958;2022-09-01T03:32:30;96336.72;;;15.86;94.93
56668;BME280;42542;48.360;10.958;2022-09-01T03:35:33;96333.19;;;15.86;94.73
56668;BME280;42542;48.360;10.958;2022-09-01T03:38:35;96329.22;;;15.82;94.07
56668;BME280;42542;48.360;10.958;2022-09-01T03:41:44;96328.75;;;15.78;94.16
56668;BME280;42542;48.360;10.958;2022-09-01T03:49:33;96323.09;;;15.73;94.14
56668;BME280;42542;48.360;10.958;2022-09-01T03:52:36;96324.13;;;15.72;94.17
56668;BME280;42542;48.360;10.958;2022-09-01T03:55:44;96312.25;;;15.67;94.32
56668;BME280;42542;48.360;10.958;2022-09-01T03:58:46;96312.25;;;15.67;94.35
56668;BME280;42542;48.360;10.958;2022-09-01T04:01:51;96316.81;;;15.66;94.16
56668;BME280;42542;48.360;10.958;2022-09-01T04:04:53;96308.72;;;15.66;94.54
56668;BME280;42542;48.360;10.958;2022-09-01T04:07:56;96314.94;;;15.67;94.31
56668;BME280;42542;48.360;10.958;2022-09-01T04:11:08;96326.09;;;15.63;94.11
56668;BME280;42542;48.360;10.958;2022-09-01T04:14:11;96326.31;;;15.62;94.18
56668;BME280;42542;48.360;10.958;2022-09-01T04:17:14;96316.56;;;15.61;94.60
56668;BME280;42542;48.360;10.958;2022-09-01T04:25:33;96319.63;;;15.58;95.02
56668;BME280;42542;48.360;10.958;2022-09-01T04:28:48;96319.44;;;15.59;94.61
56668;BME280;42542;48.360;10.958;2022-09-01T04:31:58;96323.34;;;15.57;94.78
56668;BME280;42542;48.360;10.958;2022-09-01T04:35:06;96322.50;;;15.56;94.77
56668;BME280;42542;48.360;10.958;2022-09-01T04:38:08;96318.16;;;15.55;94.96
56668;BME280;42542;48.360;10.958;2022-09-01T04:41:10;96314.81;;;15.53;94.96
56668;BME280;42542;48.360;10.958;2022-09-01T04:44:17;96306.53;;;15.55;95.17
56668;BME280;42542;48.360;10.958;2022-09-01T04:51:55;96308.59;;;15.53;95.48
56668;BME280;42542;48.360;10.958;2022-09-01T04:54:58;96312.56;;;15.57;95.92
56668;BME280;42542;48.360;10.958;2022-09-01T04:58:00;96314.41;;;15.56;95.39
56668;BME280;42542;48.360;10.958;2022-09-01T05:01:12;96311.72;;;15.56;95.29
56668;BME280;42542;48.360;10.958;2022-09-01T05:04:21;96310.91;;;15.56;95.36
56668;BME280;42542;48.360;10.958;2022-09-01T05:07:23;96317.09;;;15.56;95.38
56668;BME280;42542;48.360;10.958;2022-09-01T05:10:24;96308.41;;;15.54;95.11
56668;BME280;42542;48.360;10.958;2022-09-01T05:13:56;96314.63;;;15.55;95.23
56668;BME280;42542;48.360;10.958;2022-09-01T05:16:59;96312.13;;;15.53;94.94
56668;BME280;42542;48.360;10.958;2022-09-01T05:20:02;96317.66;;;15.52;94.76
56668;BME280;42542;48.360;10.958;2022-09-01T05:23:04;96322.91;;;15.53;95.44
56668;BME280;42542;48.360;10.958;2022-09-01T05:26:13;96320.00;;;15.55;95.25
56668;BME280;42542;48.360;10.958;2022-09-01T05:29:18;96316.09;;;15.57;95.69
56668;BME280;42542;48.360;10.958;2022-09-01T05:32:22;96319.19;;;15.54;95.18
56668;BME280;42542;48.360;10.958;2022-09-01T05:35:27;96320.84;;;15.55;95.23
56668;BME280;42542;48.360;10.958;2022-09-01T05:38:34;96319.81;;;15.56;95.04
56668;BME280;42542;48.360;10.958;2022-09-01T05:41:36;96317.94;;;15.57;94.70
56668;BME280;42542;48.360;10.958;2022-09-01T05:44:39;96314.88;;;15.60;94.85
56668;BME280;42542;48.360;10.958;2022-09-01T05:47:48;96315.06;;;15.58;94.68
56668;BME280;42542;48.360;10.958;2022-09-01T05:50:50;96312.00;;;15.61;94.94
56668;BME280;42542;48.360;10.958;2022-09-01T05:53:56;96305.59;;;15.63;94.79
56668;BME280;42542;48.360;10.958;2022-09-01T05:57:01;96307.88;;;15.66;94.26
56668;BME280;42542;48.360;10.958;2022-09-01T06:00:24;96312.50;;;15.72;93.99
56668;BME280;42542;48.360;10.958;2022-09-01T06:03:26;96314.00;;;15.74;94.10
56668;BME280;42542;48.360;10.958;2022-09-01T06:06:44;96307.59;;;15.75;94.16
56668;BME280;42542;48.360;10.958;2022-09-01T06:10:08;96311.72;;;15.78;93.88
56668;BME280;42542;48.360;10.958;2022-09-01T06:13:10;96305.31;;;15.79;93.85
56668;BME280;42542;48.360;10.958;2022-09-01T06:16:16;96320.28;;;15.81;93.79
56668;BME280;42542;48.360;10.958;2022-09-01T06:19:20;96321.38;;;15.87;93.77
56668;BME280;42542;48.360;10.958;2022-09-01T06:22:24;96326.59;;;15.88;92.93
56668;BME280;42542;48.360;10.958;2022-09-01T06:25:26;96324.53;;;15.90;93.33
56668;BME280;42542;48.360;10.958;2022-09-01T06:28:31;96327.84;;;15.92;93.02
56668;BME280;42542;48.360;10.958;2022-09-01T06:31:34;96329.75;;;15.92;92.40
56668;BME280;42542;48.360;10.958;2022-09-01T06:34:42;96333.06;;;15.94;92.63
56668;BME280;42542;48.360;10.958;2022-09-01T06:37:45;96332.03;;;15.95;91.93
56668;BME280;42542;48.360;10.958;2022-09-01T06:41:05;96336.59;;;15.94;91.61
56668;BME280;42542;48.360;10.958;2022-09-01T06:44:13;96337.00;;;15.91;91.57
56668;BME280;42542;48.360;10.958;2022-09-01T06:47:22;96336.78;;;15.93;91.65
56668;BME280;42542;48.360;10.958;2022-09-01T06:50:24;96346.81;;;15.99;92.29
56668;BME280;42542;48.360;10.958;2022-09-01T06:53:50;96345.38;;;16.03;91.95
56668;BME280;42542;48.360;10.958;2022-09-01T06:56:59;96351.81;;;16.02;91.83
56668;BME280;42542;48.360;10.958;2022-09-01T07:00:25;96355.41;;;16.09;92.04
56668;BME280;42542;48.360;10.958;2022-09-01T07:03:27;96360.78;;;16.09;91.16
56668;BME280;42542;48.360;10.958;2022-09-01T07:06:55;96359.78;;;16.10;90.63
56668;BME280;42542;48.360;10.958;2022-09-01T07:10:42;96356.88;;;16.12;89.40
56668;BME280;42542;48.360;10.958;2022-09-01T07:14:05;96372.66;;;16.15;89.87
56668;BME280;42542;48.360;10.958;2022-09-01T07:17:34;96369.84;;;16.23;89.55
56668;BME280;42542;48.360;10.958;2022-09-01T07:20:36;96367.03;;;16.31;88.42
56668;BME280;42542;48.360;10.958;2022-09-01T07:24:00;96367.53;;;16.41;87.33
56668;BME280;42542;48.360;10.958;2022-09-01T07:27:57;96359.50;;;16.48;86.38
56668;BME280;42542;48.360;10.958;2022-09-01T07:31:01;96367.66;;;16.54;86.04
56668;BME280;42542;48.360;10.958;2022-09-01T07:34:26;96362.91;;;16.56;84.92
56668;BME280;42542;48.360;10.958;2022-09-01T07:37:47;96363.72;;;16.57;84.88
56668;BME280;42542;48.360;10.958;2022-09-01T07:41:11;96365.59;;;16.56;84.50
56668;BME280;42542;48.360;10.958;2022-09-01T07:45:00;96369.59;;;16.60;84.62
56668;BME280;42542;48.360;10.958;2022-09-01T07:48:32;96376.91;;;16.66;84.62
56668;BME280;42542;48.360;10.958;2022-09-01T07:51:54;96380.44;;;16.67;83.99
56668;BME280;42542;48.360;10.958;2022-09-01T07:55:01;96380.06;;;16.70;84.52
56668;BME280;42542;48.360;10.958;2022-09-01T07:58:03;96380.66;;;16.72;84.38
56668;BME280;42542;48.360;10.958;2022-09-01T08:01:10;96388.38;;;16.75;83.78
56668;BME280;42542;48.360;10.958;2022-09-01T08:04:14;96389.41;;;16.74;83.82
56668;BME280;42542;48.360;10.958;2022-09-01T08:07:17;96387.56;;;16.74;83.41
56668;BME280;42542;48.360;10.958;2022-09-01T08:10:19;96394.03;;;16.80;83.98
56668;BME280;42542;48.360;10.958;2022-09-01T08:13:23;96391.97;;;16.82;84.13
56668;BME280;42542;48.360;10.958;2022-09-01T08:16:26;96395.75;;;16.88;84.17
56668;BME280;42542;48.360;10.958;2022-09-01T08:19:40;96396.59;;;16.88;84.02
56668;BME280;42542;48.360;10.958;2022-09-01T08:22:46;96403.66;;;16.89;83.48
56668;BME280;42542;48.360;10.958;2022-09-01T08:26:04;96407.00;;;16.91;84.06
56668;BME280;42542;48.360;10.958;2022-09-01T08:29:06;96405.13;;;16.92;84.13
56668;BME280;42542;48.360;10.958;2022-09-01T08:32:12;96408.47;;;16.94;83.66
56668;BME280;42542;48.360;10.958;2022-09-01T08:35:18;96413.66;;;16.95;83.85
56668;BME280;42542;48.360;10.958;2022-09-01T08:38:20;96419.91;;;16.96;83.63
56668;BME280;42542;48.360;10.958;2022-09-01T08:48:26;96412.25;;;16.99;82.87
56668;BME280;42542;48.360;10.958;2022-09-01T08:52:01;96421.56;;;16.97;82.21
56668;BME280;42542;48.360;10.958;2022-09-01T08:55:15;96417.81;;;16.91;81.34
56668;BME280;42542;48.360;10.958;2022-09-01T08:58:18;96423.59;;;16.88;81.48
56668;BME280;42542;48.360;10.958;2022-09-01T09:01:50;96422.38;;;16.91;82.05
56668;BME280;42542;48.360;10.958;2022-09-01T09:08:47;96426.13;;;16.96;81.58
56668;BME280;42542;48.360;10.958;2022-09-01T09:15:42;96421.53;;;17.18;82.10
56668;BME280;42542;48.360;10.958;2022-09-01T09:18:52;96421.38;;;17.26;81.26
56668;BME280;42542;48.360;10.958;2022-09-01T09:21:59;96429.53;;;17.39;81.21
56668;BME280;42542;48.360;10.958;2022-09-01T09:25:07;96427.31;;;17.49;81.39
56668;BME280;42542;48.360;10.958;2022-09-01T09:28:09;96422.38;;;17.60;80.68
56668;BME280;42542;48.360;10.958;2022-09-01T09:34:38;96425.00;;;17.81;80.36
56668;BME280;42542;48.360;10.958;2022-09-01T09:37:39;96418.38;;;17.90;79.90
56668;BME280;42542;48.360;10.958;2022-09-01T09:41:04;96413.84;;;18.04;78.03
56668;BME280;42542;48.360;10.958;2022-09-01T09:44:30;96414.91;;;18.16;77.85
56668;BME280;42542;48.360;10.958;2022-09-01T09:47:37;96413.69;;;18.25;76.97
56668;BME280;42542;48.360;10.958;2022-09-01T09:50:46;96410.78;;;18.33;76.45
56668;BME280;42542;48.360;10.958;2022-09-01T09:53:50;96400.63;;;18.42;75.74
56668;BME280;42542;48.360;10.958;2022-09-01T10:03:34;96404.38;;;18.54;73.81
56668;BME280;42542;48.360;10.958;2022-09-01T10:06:42;96397.56;;;18.58;74.74
56668;BME280;42542;48.360;10.958;2022-09-01T10:09:47;96400.66;;;18.61;74.45
56668;BME280;42542;48.360;10.958;2022-09-01T10:12:53;96395.03;;;18.69;74.08
56668;BME280;42542;48.360;10.958;2022-09-01T10:15:59;96410.06;;;18.72;72.32
56668;BME280;42542;48.360;10.958;2022-09-01T10:19:05;96406.72;;;18.77;72.69
56668;BME280;42542;48.360;10.958;2022-09-01T10:22:13;96400.88;;;18.80;72.75
56668;BME280;42542;48.360;10.958;2022-09-01T10:25:19;96404.00;;;18.83;72.84
56668;BME280;42542;48.360;10.958;2022-09-01T10:28:21;96395.47;;;18.86;72.87
56668;BME280;42542;48.360;10.958;2022-09-01T10:31:27;96393.78;;;18.92;72.98
56668;BME280;42542;48.360;10.958;2022-09-01T10:34:35;96381.06;;;18.99;72.34
56668;BME280;42542;48.360;10.958;2022-09-01T10:37:38;96385.25;;;19.01;70.98
56668;BME280;42542;48.360;10.958;2022-09-01T10:40:44;96388.53;;;19.10;71.19
56668;BME280;42542;48.360;10.958;2022-09-01T10:43:51;96385.22;;;19.15;70.83
56668;BME280;42542;48.360;10.958;2022-09-01T10:46:52;96383.94;;;19.24;71.15
56668;BME280;42542;48.360;10.958;2022-09-01T10:50:24;96380.38;;;19.36;68.88
56668;BME280;42542;48.360;10.958;2022-09-01T10:56:41;96375.34;;;19.53;67.94
56668;BME280;42542;48.360;10.958;2022-09-01T10:59:51;96379.94;;;19.59;67.21
56668;BME280;42542;48.360;10.958;2022-09-01T11:13:14;96375.63;;;19.83;65.75
56668;BME280;42542;48.360;10.958;2022-09-01T11:29:55;96379.50;;;20.07;65.67
56668;BME280;42542;48.360;10.958;2022-09-01T11:33:07;96374.44;;;20.17;65.91
56668;BME280;42542;48.360;10.958;2022-09-01T11:36:53;96368.97;;;20.23;64.79
56668;BME280;42542;48.360;10.958;2022-09-01T11:40:00;96361.81;;;20.29;65.29
56668;BME280;42542;48.360;10.958;2022-09-01T11:43:07;96368.50;;;20.33;64.78
56668;BME280;42542;48.360;10.958;2022-09-01T11:46:22;96365.34;;;20.36;63.08
56668;BME280;42542;48.360;10.958;2022-09-01T11:49:44;96349.91;;;20.37;60.54
56668;BME280;42542;48.360;10.958;2022-09-01T11:52:58;96357.22;;;20.36;59.43
56668;BME280;42542;48.360;10.958;2022-09-01T11:56:23;96352.56;;;20.43;57.91
56668;BME280;42542;48.360;10.958;2022-09-01T11:59:33;96356.69;;;20.52;58.71
56668;BME280;42542;48.360;10.958;2022-09-01T12:02:45;96356.16;;;20.62;60.17
56668;BME280;42542;48.360;10.958;2022-09-01T12:05:52;96349.56;;;20.76;60.11
56668;BME280;42542;48.360;10.958;2022-09-01T12:09:02;96347.41;;;20.85;59.57
56668;BME280;42542;48.360;10.958;2022-09-01T12:12:29;96341.06;;;20.91;58.49
56668;BME280;42542;48.360;10.958;2022-09-01T12:15:28;96346.50;;;20.91;58.32
56668;BME280;42542;48.360;10.958;2022-09-01T12:18:52;96341.75;;;20.86;56.31
56668;BME280;42542;48.360;10.958;2022-09-01T12:22:12;96341.13;;;20.84;57.37
56668;BME280;42542;48.360;10.958;2022-09-01T12:28:26;96345.47;;;20.92;57.26
56668;BME280;42542;48.360;10.958;2022-09-01T12:31:31;96343.97;;;20.96;56.87
56668;BME280;42542;48.360;10.958;2022-09-01T12:34:37;96334.91;;;21.02;56.89
56668;BME280;42542;48.360;10.958;2022-09-01T12:37:40;96345.31;;;21.05;54.92
56668;BME280;42542;48.360;10.958;2022-09-01T12:40:41;96345.09;;;21.07;55.03
56668;BME280;42542;48.360;10.958;2022-09-01T12:43:43;96332.50;;;21.12;55.73
56668;BME280;42542;48.360;10.958;2022-09-01T12:46:46;96330.19;;;21.16;56.18
56668;BME280;42542;48.360;10.958;2022-09-01T12:49:47;96336.78;;;21.26;56.35
56668;BME280;42542;48.360;10.958;2022-09-01T12:52:57;96331.25;;;21.33;56.40
56668;BME280;42542;48.360;10.958;2022-09-01T12:56:02;96337.94;;;21.37;56.98
56668;BME280;42542;48.360;10.958;2022-09-01T12:59:12;96339.19;;;21.34;57.46
56668;BME280;42542;48.360;10.958;2022-09-01T13:02:33;96348.66;;;21.32;57.32
56668;BME280;42542;48.360;10.958;2022-09-01T13:05:37;96348.13;;;21.23;57.70
56668;BME280;42542;48.360;10.958;2022-09-01T13:08:43;96347.75;;;21.13;57.83
56668;BME280;42542;48.360;10.958;2022-09-01T13:11:45;96347.13;;;21.11;58.54
56668;BME280;42542;48.360;10.958;2022-09-01T13:15:08;96350.13;;;21.10;58.63
56668;BME280;42542;48.360;10.958;2022-09-01T13:18:10;96349.50;;;21.08;58.17
56668;BME280;42542;48.360;10.958;2022-09-01T13:21:13;96343.91;;;21.02;56.89
56668;BME280;42542;48.360;10.958;2022-09-01T13:24:15;96348.94;;;20.99;56.77
56668;BME280;42542;48.360;10.958;2022-09-01T13:27:18;96346.00;;;21.00;56.67
56668;BME280;42542;48.360;10.958;2022-09-01T13:30:23;96348.78;;;20.94;56.17
56668;BME280;42542;48.360;10.958;2022-09-01T13:33:28;96338.13;;;20.92;56.61
56668;BME280;42542;48.360;10.958;2022-09-01T13:36:51;96336.25;;;20.93;56.87
56668;BME280;42542;48.360;10.958;2022-09-01T13:39:53;96334.16;;;20.95;56.60
56668;BME280;42542;48.360;10.958;2022-09-01T13:42:55;96333.09;;;20.96;56.63
56668;BME280;42542;48.360;10.958;2022-09-01T13:45:56;96325.75;;;20.96;56.05
56668;BME280;42542;48.360;10.958;2022-09-01T13:49:00;96320.09;;;20.98;55.61
56668;BME280;42542;48.360;10.958;2022-09-01T13:52:05;96324.28;;;21.00;55.47
56668;BME280;42542;48.360;10.958;2022-09-01T13:55:09;96322.81;;;20.98;54.25
56668;BME280;42542;48.360;10.958;2022-09-01T13:58:11;96323.88;;;20.97;54.17
56668;BME280;42542;48.360;10.958;2022-09-01T14:01:14;96321.63;;;20.94;53.08
56668;BME280;42542;48.360;10.958;2022-09-01T14:04:16;96318.22;;;20.98;53.66
56668;BME280;42542;48.360;10.958;2022-09-01T14:07:20;96315.22;;;21.07;53.31
56668;BME280;42542;48.360;10.958;2022-09-01T14:10:23;96309.88;;;21.18;52.91
56668;BME280;42542;48.360;10.958;2022-09-01T14:13:25;96306.13;;;21.37;53.07
56668;BME280;42542;48.360;10.958;2022-09-01T14:16:27;96302.31;;;21.57;51.63
56668;BME280;42542;48.360;10.958;2022-09-01T14:19:29;96302.75;;;21.72;50.40
56668;BME280;42542;48.360;10.958;2022-09-01T14:22:33;96302.97;;;21.89;50.79
56668;BME280;42542;48.360;10.958;2022-09-01T14:25:45;96300.09;;;22.13;50.40
56668;BME280;42542;48.360;10.958;2022-09-01T14:28:47;96290.72;;;22.39;49.62
56668;BME280;42542;48.360;10.958;2022-09-01T14:31:49;96288.06;;;22.74;49.30
56668;BME280;42542;48.360;10.958;2022-09-01T14:34:51;96284.94;;;23.17;49.29
56668;BME280;42542;48.360;10.958;2022-09-01T14:37:53;96280.75;;;23.50;48.29
56668;BME280;42542;48.360;10.958;2022-09-01T14:40:55;96278.06;;;23.78;47.97
56668;BME280;42542;48.360;10.958;2022-09-01T14:43:57;96273.59;;;24.17;47.85
56668;BME280;42542;48.360;10.958;2022-09-01T14:47:04;96263.22;;;24.31;45.96
56668;BME280;42542;48.360;10.958;2022-09-01T14:50:06;96262.00;;;24.55;45.39
56668;BME280;42542;48.360;10.958;2022-09-01T14:53:09;96265.47;;;24.84;45.18
56668;BME280;42542;48.360;10.958;2022-09-01T14:56:11;96261.00;;;24.95;44.23
56668;BME280;42542;48.360;10.958;2022-09-01T14:59:13;96274.50;;;24.84;43.70
56668;BME280;42542;48.360;10.958;2022-09-01T15:02:15;96265.47;;;24.67;43.53
56668;BME280;42542;48.360;10.958;2022-09-01T15:05:17;96261.59;;;24.63;43.13
56668;BME280;42542;48.360;10.958;2022-09-01T15:08:20;96275.91;;;24.54;43.13
56668;BME280;42542;48.360;10.958;2022-09-01T15:11:22;96263.91;;;24.55;42.35
56668;BME280;42542;48.360;10.958;2022-09-01T15:14:24;96260.50;;;24.64;42.04
56668;BME280;42542;48.360;10.958;2022-09-01T15:17:26;96266.59;;;24.88;42.31
56668;BME280;42542;48.360;10.958;2022-09-01T15:20:29;96255.25;;;25.13;41.93
56668;BME280;42542;48.360;10.958;2022-09-01T15:23:45;96262.78;;;25.44;41.79
56668;BME280;42542;48.360;10.958;2022-09-01T15:26:49;96259.66;;;25.57;40.55
56668;BME280;42542;48.360;10.958;2022-09-01T15:29:50;96255.66;;;25.65;39.77
56668;BME280;42542;48.360;10.958;2022-09-01T15:32:53;96263.38;;;25.68;38.56
56668;BME280;42542;48.360;10.958;2022-09-01T15:35:55;96260.94;;;25.50;39.12
56668;BME280;42542;48.360;10.958;2022-09-01T15:38:57;96269.31;;;25.60;39.58
56668;BME280;42542;48.360;10.958;2022-09-01T15:41:59;96264.84;;;25.76;39.29
56668;BME280;42542;48.360;10.958;2022-09-01T15:45:06;96270.50;;;25.91;38.71
56668;BME280;42542;48.360;10.958;2022-09-01T15:48:08;96267.59;;;26.02;38.62
56668;BME280;42542;48.360;10.958;2022-09-01T15:54:32;96260.56;;;26.12;38.29
56668;BME280;42542;48.360;10.958;2022-09-01T15:57:37;96258.97;;;26.16;38.04
56668;BME280;42542;48.360;10.958;2022-09-01T16:00:41;96253.47;;;26.16;37.46
56668;BME280;42542;48.360;10.958;2022-09-01T16:03:43;96258.91;;;26.11;37.61
56668;BME280;42542;48.360;10.958;2022-09-01T16:06:45;96256.50;;;26.14;37.73
56668;BME280;42542;48.360;10.958;2022-09-01T16:09:47;96259.53;;;26.18;37.60
56668;BME280;42542;48.360;10.958;2022-09-01T16:12:49;96264.13;;;26.12;36.23
56668;BME280;42542;48.360;10.958;2022-09-01T16:22:43;96263.16;;;25.31;37.93
56668;BME280;42542;48.360;10.958;2022-09-01T16:25:47;96267.53;;;25.10;38.45
56668;BME280;42542;48.360;10.958;2022-09-01T16:28:53;96258.28;;;24.78;37.72
56668;BME280;42542;48.360;10.958;2022-09-01T16:31:55;96272.44;;;24.41;37.75
56668;BME280;42542;48.360;10.958;2022-09-01T16:34:57;96268.16;;;24.17;38.84
56668;BME280;42542;48.360;10.958;2022-09-01T16:38:15;96266.59;;;23.93;39.30
56668;BME280;42542;48.360;10.958;2022-09-01T16:44:57;96260.00;;;23.49;41.56
56668;BME280;42542;48.360;10.958;2022-09-01T16:48:24;96263.59;;;23.26;41.17
56668;BME280;42542;48.360;10.958;2022-09-01T16:51:51;96263.63;;;23.03;41.58
56668;BME280;42542;48.360;10.958;2022-09-01T16:55:04;96261.00;;;22.84;42.26
56668;BME280;42542;48.360;10.958;2022-09-01T16:58:20;96268.69;;;22.64;42.30
56668;BME280;42542;48.360;10.958;2022-09-01T17:01:55;96263.34;;;22.46;42.87
56668;BME280;42542;48.360;10.958;2022-09-01T17:04:59;96259.88;;;22.27;43.19
56668;BME280;42542;48.360;10.958;2022-09-01T17:08:17;96261.41;;;22.11;44.87
56668;BME280;42542;48.360;10.958;2022-09-01T17:11:34;96265.38;;;21.97;44.77
56668;BME280;42542;48.360;10.958;2022-09-01T17:14:44;96266.47;;;21.78;44.88
56668;BME280;42542;48.360;10.958;2022-09-01T17:21:34;96270.16;;;21.35;44.49
56668;BME280;42542;48.360;10.958;2022-09-01T17:24:47;96261.59;;;21.14;44.81
56668;BME280;42542;48.360;10.958;2022-09-01T17:28:56;96267.06;;;20.95;45.09
56668;BME280;42542;48.360;10.958;2022-09-01T17:39:54;96275.41;;;20.51;48.64
56668;BME280;42542;48.360;10.958;2022-09-01T17:43:11;96284.13;;;20.35;48.16
56668;BME280;42542;48.360;10.958;2022-09-01T18:00:08;96290.16;;;19.67;51.32
56668;BME280;42542;48.360;10.958;2022-09-01T18:06:43;96291.75;;;19.37;51.54
56668;BME280;42542;48.360;10.958;2022-09-01T18:09:52;96302.63;;;19.30;52.13
56668;BME280;42542;48.360;10.958;2022-09-01T18:13:00;96301.59;;;19.18;52.37
56668;BME280;42542;48.360;10.958;2022-09-01T18:16:11;96304.78;;;19.08;53.50
56668;BME280;42542;48.360;10.958;2022-09-01T18:19:17;96305.88;;;18.94;52.85
56668;BME280;42542;48.360;10.958;2022-09-01T18:22:21;96308.16;;;18.84;53.50
56668;BME280;42542;48.360;10.958;2022-09-01T18:25:39;96311.72;;;18.71;54.34